Sunrise, Wyoming
Current Conditions -  °F | °C
As of 1:15 AM on Monday 24 Nov 2014 (Local Time) from KGUR Reporting Station
Clear Clear  
Wind Chill: 23°   Ceiling: Unl
Heat Index: 29°   Visibility: 10mi
Dew Point: 17°   Wind: 6mph
Humidity: 62%   Direction: 290°WNW
Pressure: 29.83"   Gusts: NA
Location:  42.3847°N, 104.796°W
Report Text: KGUR 240815Z AUTO 29005KT 10SM CLR M02/M08 A2983 RMK AO2 T10181083
Loading
Personal Weather Stations






























Interactive Weather Map New forecast layout! Learn more

10-Day Weather Forecast

Advertisements
Track Severe Weather on mobile